LOT6KC EKCH-EPWA
Flight info
| Callsign | LOT6KC |
|---|---|
| Flight time | 1h 0m |
| Altitude | 35000 |
| Route | SIMEG Z491 TELMO DCT KOLOB N195 SORIX |
| Aircraft | B738/M-SDE2E3FGIJ1RWY/LB1 |
Departure
| Time | 2026-05-04 19:22 |
|---|---|
| Airport | Copenhagen Kastrup Airport (EKCH) |
Arrival
| Time | 2026-05-04 20:22 |
|---|---|
| Airport | Warsaw Chopin Airport (EPWA) |
| Time | Latitude | Longitude | Altitude | Speed | Heading |
|---|---|---|---|---|---|
| 2026-05-04 18:34 | 55.62874 | 12.64068 | 16 ft | 0 kts | 11° |
| 2026-05-04 19:09 | 55.62872 | 12.64067 | 16 ft | 1 kts | 11° |
| 2026-05-04 19:09 | 55.62847 | 12.64058 | 17 ft | 3 kts | 18° |
| 2026-05-04 19:09 | 55.62825 | 12.64038 | 18 ft | 3 kts | 56° |
| 2026-05-04 19:10 | 55.62821 | 12.64002 | 20 ft | 3 kts | 92° |
| 2026-05-04 19:10 | 55.62824 | 12.63954 | 18 ft | 3 kts | 102° |
| 2026-05-04 19:10 | 55.62831 | 12.63909 | 16 ft | 3 kts | 107° |
| 2026-05-04 19:10 | 55.62836 | 12.63877 | 19 ft | 0 kts | 104° |
| 2026-05-04 19:14 | 55.62835 | 12.63882 | 20 ft | 2 kts | 104° |
| 2026-05-04 19:14 | 55.62819 | 12.63937 | 20 ft | 8 kts | 130° |
| 2026-05-04 19:14 | 55.62755 | 12.63936 | 16 ft | 11 kts | 210° |
| 2026-05-04 19:15 | 55.62694 | 12.63867 | 17 ft | 10 kts | 212° |
| 2026-05-04 19:15 | 55.62633 | 12.63905 | 16 ft | 12 kts | 126° |
| 2026-05-04 19:15 | 55.62580 | 12.64043 | 18 ft | 15 kts | 123° |
| 2026-05-04 19:15 | 55.62519 | 12.64208 | 16 ft | 16 kts | 123° |
| 2026-05-04 19:16 | 55.62457 | 12.64366 | 16 ft | 15 kts | 129° |
| 2026-05-04 19:16 | 55.62388 | 12.64448 | 16 ft | 11 kts | 184° |
| 2026-05-04 19:16 | 55.62346 | 12.64430 | 16 ft | 0 kts | 195° |
| 2026-05-04 19:18 | 55.62345 | 12.64430 | 16 ft | 1 kts | 195° |
| 2026-05-04 19:18 | 55.62315 | 12.64415 | 16 ft | 9 kts | 195° |
| 2026-05-04 19:19 | 55.62239 | 12.64377 | 15 ft | 14 kts | 199° |
| 2026-05-04 19:19 | 55.62149 | 12.64305 | 16 ft | 14 kts | 206° |
| 2026-05-04 19:19 | 55.62060 | 12.64231 | 18 ft | 15 kts | 205° |
| 2026-05-04 19:19 | 55.61954 | 12.64142 | 18 ft | 19 kts | 205° |
| 2026-05-04 19:20 | 55.61876 | 12.64080 | 16 ft | 18 kts | 198° |
| 2026-05-04 19:20 | 55.61769 | 12.64078 | 17 ft | 9 kts | 176° |
| 2026-05-04 19:20 | 55.61721 | 12.64084 | 17 ft | 7 kts | 176° |
| 2026-05-04 19:20 | 55.61675 | 12.64089 | 20 ft | 6 kts | 176° |
| 2026-05-04 19:21 | 55.61620 | 12.64065 | 20 ft | 7 kts | 218° |
| 2026-05-04 19:21 | 55.61581 | 12.64007 | 19 ft | 9 kts | 220° |
| 2026-05-04 19:21 | 55.61520 | 12.63914 | 20 ft | 35 kts | 221° |
| 2026-05-04 19:21 | 55.61137 | 12.63318 | 20 ft | 108 kts | 221° |
| 2026-05-04 19:22 | 55.60432 | 12.62170 | 69 ft | 160 kts | 226° |
| 2026-05-04 19:22 | 55.59577 | 12.60816 | 815 ft | 161 kts | 223° |
| 2026-05-04 19:22 | 55.58719 | 12.59518 | 1537 ft | 171 kts | 224° |
| 2026-05-04 19:22 | 55.57738 | 12.58024 | 1864 ft | 201 kts | 224° |
| 2026-05-04 19:23 | 55.56597 | 12.56342 | 2076 ft | 226 kts | 217° |
| 2026-05-04 19:23 | 55.55092 | 12.55169 | 2390 ft | 250 kts | 200° |
| 2026-05-04 19:23 | 55.53399 | 12.54190 | 2955 ft | 261 kts | 201° |
| 2026-05-04 19:23 | 55.51683 | 12.53171 | 3915 ft | 259 kts | 201° |
| 2026-05-04 19:24 | 55.49981 | 12.52141 | 4849 ft | 259 kts | 202° |
| 2026-05-04 19:24 | 55.48269 | 12.51093 | 5680 ft | 262 kts | 202° |
| 2026-05-04 19:24 | 55.46539 | 12.50042 | 6515 ft | 265 kts | 200° |
| 2026-05-04 19:24 | 55.44672 | 12.49819 | 7262 ft | 278 kts | 173° |
| 2026-05-04 19:25 | 55.42883 | 12.51218 | 8038 ft | 290 kts | 144° |
| 2026-05-04 19:25 | 55.41668 | 12.54099 | 8767 ft | 301 kts | 113° |
| 2026-05-04 19:25 | 55.41019 | 12.57781 | 9578 ft | 306 kts | 107° |
| 2026-05-04 19:25 | 55.40481 | 12.61232 | 10218 ft | 312 kts | 107° |
| 2026-05-04 19:26 | 55.39866 | 12.65036 | 10445 ft | 335 kts | 108° |
| 2026-05-04 19:26 | 55.39186 | 12.69084 | 10731 ft | 353 kts | 108° |
| 2026-05-04 19:26 | 55.38472 | 12.73277 | 11332 ft | 361 kts | 108° |
| 2026-05-04 19:26 | 55.37742 | 12.77523 | 12037 ft | 365 kts | 108° |
| 2026-05-04 19:27 | 55.37004 | 12.81808 | 12774 ft | 369 kts | 109° |
| 2026-05-04 19:27 | 55.36253 | 12.86154 | 13501 ft | 374 kts | 109° |
| 2026-05-04 19:27 | 55.35491 | 12.90562 | 14185 ft | 379 kts | 109° |
| 2026-05-04 19:27 | 55.34721 | 12.95009 | 14892 ft | 382 kts | 109° |
| 2026-05-04 19:28 | 55.33941 | 12.99495 | 15624 ft | 386 kts | 109° |
| 2026-05-04 19:28 | 55.33153 | 13.04014 | 16345 ft | 389 kts | 109° |
| 2026-05-04 19:28 | 55.32336 | 13.08575 | 17044 ft | 393 kts | 112° |
| 2026-05-04 19:28 | 55.31165 | 13.12898 | 17707 ft | 394 kts | 123° |
| 2026-05-04 19:29 | 55.29755 | 13.17062 | 18374 ft | 398 kts | 124° |
| 2026-05-04 19:29 | 55.28303 | 13.21219 | 18973 ft | 401 kts | 124° |
| 2026-05-04 19:29 | 55.26831 | 13.25401 | 19575 ft | 405 kts | 124° |
| 2026-05-04 19:29 | 55.25349 | 13.29626 | 20172 ft | 409 kts | 124° |
| 2026-05-04 19:30 | 55.23861 | 13.33893 | 20757 ft | 413 kts | 124° |
| 2026-05-04 19:30 | 55.22360 | 13.38218 | 21328 ft | 417 kts | 124° |
| 2026-05-04 19:30 | 55.20850 | 13.42579 | 21882 ft | 421 kts | 124° |
| 2026-05-04 19:30 | 55.19328 | 13.46981 | 22432 ft | 425 kts | 124° |
| 2026-05-04 19:31 | 55.17791 | 13.51426 | 22964 ft | 429 kts | 124° |
| 2026-05-04 19:31 | 55.16238 | 13.55910 | 23497 ft | 433 kts | 125° |
| 2026-05-04 19:31 | 55.14669 | 13.60437 | 23915 ft | 437 kts | 125° |
| 2026-05-04 19:31 | 55.13081 | 13.65008 | 24314 ft | 442 kts | 125° |
| 2026-05-04 19:32 | 55.11477 | 13.69615 | 24729 ft | 446 kts | 126° |
| 2026-05-04 19:32 | 55.09880 | 13.74195 | 25131 ft | 450 kts | 126° |
| 2026-05-04 19:32 | 55.08242 | 13.78883 | 25519 ft | 454 kts | 126° |
| 2026-05-04 19:32 | 55.06589 | 13.83603 | 25912 ft | 458 kts | 126° |
| 2026-05-04 19:33 | 55.04919 | 13.88365 | 26290 ft | 462 kts | 126° |
| 2026-05-04 19:33 | 55.03229 | 13.93172 | 26676 ft | 465 kts | 127° |
| 2026-05-04 19:33 | 55.01534 | 13.97987 | 27049 ft | 469 kts | 127° |
| 2026-05-04 19:33 | 54.99822 | 14.02839 | 27415 ft | 473 kts | 127° |
| 2026-05-04 19:34 | 54.98092 | 14.07733 | 27800 ft | 476 kts | 127° |
| 2026-05-04 19:34 | 54.96351 | 14.12648 | 28166 ft | 479 kts | 127° |
| 2026-05-04 19:34 | 54.94592 | 14.17602 | 28520 ft | 482 kts | 127° |
| 2026-05-04 19:34 | 54.92825 | 14.22570 | 28865 ft | 485 kts | 128° |
| 2026-05-04 19:35 | 54.91041 | 14.27575 | 29214 ft | 488 kts | 128° |
| 2026-05-04 19:35 | 54.89244 | 14.32607 | 29543 ft | 491 kts | 128° |
| 2026-05-04 19:35 | 54.87436 | 14.37662 | 29869 ft | 494 kts | 128° |
| 2026-05-04 19:35 | 54.85614 | 14.42742 | 30183 ft | 497 kts | 128° |
| 2026-05-04 19:36 | 54.83787 | 14.47829 | 30500 ft | 498 kts | 128° |
| 2026-05-04 19:36 | 54.81951 | 14.52931 | 30851 ft | 498 kts | 127° |
| 2026-05-04 19:36 | 54.80123 | 14.58005 | 31322 ft | 495 kts | 127° |
| 2026-05-04 19:36 | 54.78308 | 14.63035 | 31868 ft | 490 kts | 127° |
| 2026-05-04 19:37 | 54.76508 | 14.68013 | 32367 ft | 486 kts | 127° |
| 2026-05-04 19:37 | 54.74717 | 14.72949 | 32797 ft | 484 kts | 127° |
| 2026-05-04 19:37 | 54.72971 | 14.77748 | 33168 ft | 483 kts | 127° |
| 2026-05-04 19:37 | 54.71179 | 14.82660 | 33584 ft | 481 kts | 127° |
| 2026-05-04 19:38 | 54.69398 | 14.87535 | 34017 ft | 478 kts | 127° |
| 2026-05-04 19:38 | 54.67627 | 14.92377 | 34368 ft | 476 kts | 127° |
| 2026-05-04 19:38 | 54.65857 | 14.97203 | 34647 ft | 476 kts | 127° |
| 2026-05-04 19:38 | 54.64083 | 15.02028 | 34880 ft | 476 kts | 127° |
| 2026-05-04 19:39 | 54.62299 | 15.06870 | 34962 ft | 478 kts | 127° |
| 2026-05-04 19:39 | 54.58709 | 15.16593 | 34960 ft | 476 kts | 127° |
| 2026-05-04 19:40 | 54.55160 | 15.26174 | 34956 ft | 473 kts | 127° |
| 2026-05-04 19:40 | 54.51618 | 15.35694 | 34962 ft | 471 kts | 127° |
| 2026-05-04 19:41 | 54.48077 | 15.45173 | 34966 ft | 471 kts | 128° |
| 2026-05-04 19:41 | 54.44529 | 15.54635 | 34966 ft | 471 kts | 128° |
| 2026-05-04 19:42 | 54.40971 | 15.64089 | 34972 ft | 472 kts | 128° |
| 2026-05-04 19:42 | 54.37391 | 15.73563 | 34976 ft | 474 kts | 128° |
| 2026-05-04 19:43 | 54.33795 | 15.83045 | 34974 ft | 475 kts | 128° |
| 2026-05-04 19:43 | 54.30181 | 15.92540 | 34977 ft | 476 kts | 128° |
| 2026-05-04 19:44 | 54.26551 | 16.02040 | 34979 ft | 477 kts | 128° |
| 2026-05-04 19:44 | 54.22905 | 16.11544 | 34981 ft | 478 kts | 128° |
| 2026-05-04 19:45 | 54.19271 | 16.20982 | 34980 ft | 479 kts | 128° |
| 2026-05-04 19:45 | 54.15602 | 16.30475 | 34979 ft | 479 kts | 128° |
| 2026-05-04 19:46 | 54.11924 | 16.39956 | 34974 ft | 479 kts | 128° |
| 2026-05-04 19:46 | 54.08241 | 16.49415 | 34976 ft | 479 kts | 128° |
| 2026-05-04 19:47 | 54.04556 | 16.58841 | 34973 ft | 478 kts | 128° |
| 2026-05-04 19:47 | 54.00871 | 16.68231 | 34973 ft | 477 kts | 128° |
| 2026-05-04 19:48 | 53.97207 | 16.77535 | 34976 ft | 476 kts | 128° |
| 2026-05-04 19:48 | 53.93520 | 16.86860 | 34976 ft | 475 kts | 128° |
| 2026-05-04 19:49 | 53.89806 | 16.96219 | 34977 ft | 475 kts | 128° |
| 2026-05-04 19:49 | 53.86112 | 17.05492 | 34976 ft | 474 kts | 128° |
| 2026-05-04 19:50 | 53.82395 | 17.14790 | 34975 ft | 474 kts | 128° |
| 2026-05-04 19:50 | 53.78695 | 17.24010 | 34976 ft | 473 kts | 128° |
| 2026-05-04 19:51 | 53.75019 | 17.33144 | 34973 ft | 473 kts | 128° |
| 2026-05-04 19:51 | 53.71376 | 17.42400 | 34970 ft | 473 kts | 127° |
| 2026-05-04 19:52 | 53.67760 | 17.51673 | 34966 ft | 473 kts | 127° |
| 2026-05-04 19:52 | 53.64137 | 17.60926 | 34973 ft | 473 kts | 127° |
| 2026-05-04 19:53 | 53.60501 | 17.70150 | 34962 ft | 473 kts | 127° |
| 2026-05-04 19:53 | 53.56879 | 17.79293 | 34958 ft | 472 kts | 127° |
| 2026-05-04 19:54 | 53.53228 | 17.88473 | 34955 ft | 472 kts | 127° |
| 2026-05-04 19:54 | 53.49550 | 17.97688 | 34958 ft | 472 kts | 128° |
| 2026-05-04 19:55 | 53.45916 | 18.06760 | 34961 ft | 471 kts | 128° |
| 2026-05-04 19:55 | 53.42250 | 18.15879 | 34963 ft | 471 kts | 128° |
| 2026-05-04 19:56 | 53.38585 | 18.24964 | 34946 ft | 471 kts | 128° |
| 2026-05-04 19:56 | 53.34909 | 18.34042 | 34956 ft | 470 kts | 128° |
| 2026-05-04 19:57 | 53.31237 | 18.43078 | 34952 ft | 470 kts | 128° |
| 2026-05-04 19:57 | 53.27556 | 18.52103 | 34950 ft | 469 kts | 128° |
| 2026-05-04 19:58 | 53.23872 | 18.61102 | 34945 ft | 469 kts | 128° |
| 2026-05-04 19:58 | 53.20185 | 18.70079 | 34934 ft | 469 kts | 128° |
| 2026-05-04 19:58 | 53.18331 | 18.74579 | 34674 ft | 471 kts | 128° |
| 2026-05-04 19:59 | 53.16514 | 18.78986 | 34296 ft | 465 kts | 128° |
| 2026-05-04 19:59 | 53.14683 | 18.83420 | 33669 ft | 466 kts | 128° |
| 2026-05-04 19:59 | 53.12838 | 18.87873 | 33010 ft | 466 kts | 128° |
| 2026-05-04 19:59 | 53.11023 | 18.92254 | 32797 ft | 457 kts | 128° |
| 2026-05-04 20:00 | 53.09201 | 18.96636 | 32537 ft | 464 kts | 128° |
| 2026-05-04 20:00 | 53.07343 | 19.01091 | 32289 ft | 474 kts | 128° |
| 2026-05-04 20:00 | 53.05450 | 19.05623 | 32035 ft | 479 kts | 128° |
| 2026-05-04 20:00 | 53.03546 | 19.10179 | 31774 ft | 479 kts | 128° |
| 2026-05-04 20:01 | 53.01647 | 19.14721 | 31505 ft | 479 kts | 128° |
| 2026-05-04 20:01 | 52.99747 | 19.19257 | 31250 ft | 478 kts | 128° |
| 2026-05-04 20:01 | 52.97848 | 19.23782 | 30996 ft | 478 kts | 128° |
| 2026-05-04 20:01 | 52.95953 | 19.28291 | 30754 ft | 477 kts | 128° |
| 2026-05-04 20:02 | 52.94052 | 19.32804 | 30503 ft | 476 kts | 128° |
| 2026-05-04 20:02 | 52.92150 | 19.37310 | 30253 ft | 475 kts | 128° |
| 2026-05-04 20:02 | 52.90261 | 19.41776 | 29719 ft | 474 kts | 128° |
| 2026-05-04 20:02 | 52.88365 | 19.46252 | 28842 ft | 475 kts | 128° |
| 2026-05-04 20:03 | 52.86460 | 19.50738 | 27942 ft | 477 kts | 128° |
| 2026-05-04 20:03 | 52.84552 | 19.55227 | 27096 ft | 477 kts | 128° |
| 2026-05-04 20:03 | 52.82644 | 19.59706 | 26417 ft | 473 kts | 127° |
| 2026-05-04 20:03 | 52.80784 | 19.64070 | 25811 ft | 468 kts | 128° |
| 2026-05-04 20:04 | 52.78915 | 19.68444 | 25143 ft | 465 kts | 128° |
| 2026-05-04 20:04 | 52.77051 | 19.72799 | 24514 ft | 462 kts | 128° |
| 2026-05-04 20:04 | 52.75205 | 19.77104 | 23918 ft | 457 kts | 128° |
| 2026-05-04 20:04 | 52.73377 | 19.81361 | 23308 ft | 453 kts | 128° |
| 2026-05-04 20:05 | 52.71564 | 19.85575 | 22654 ft | 448 kts | 128° |
| 2026-05-04 20:05 | 52.69766 | 19.89747 | 22014 ft | 444 kts | 128° |
| 2026-05-04 20:05 | 52.67985 | 19.93873 | 21392 ft | 439 kts | 128° |
| 2026-05-04 20:05 | 52.66223 | 19.97948 | 20804 ft | 435 kts | 128° |
| 2026-05-04 20:06 | 52.64475 | 20.01984 | 20222 ft | 430 kts | 128° |
| 2026-05-04 20:06 | 52.62745 | 20.05971 | 19638 ft | 426 kts | 128° |
| 2026-05-04 20:06 | 52.61028 | 20.09922 | 19073 ft | 422 kts | 128° |
| 2026-05-04 20:06 | 52.59328 | 20.13831 | 18525 ft | 418 kts | 128° |
| 2026-05-04 20:07 | 52.57643 | 20.17696 | 17935 ft | 414 kts | 128° |
| 2026-05-04 20:07 | 52.55992 | 20.21480 | 17333 ft | 411 kts | 129° |
| 2026-05-04 20:07 | 52.54333 | 20.25277 | 16747 ft | 407 kts | 129° |
| 2026-05-04 20:07 | 52.52691 | 20.29029 | 16164 ft | 403 kts | 129° |
| 2026-05-04 20:08 | 52.51060 | 20.32750 | 15591 ft | 400 kts | 129° |
| 2026-05-04 20:08 | 52.49442 | 20.36434 | 15031 ft | 396 kts | 129° |
| 2026-05-04 20:08 | 52.47835 | 20.40090 | 14471 ft | 393 kts | 129° |
| 2026-05-04 20:08 | 52.46242 | 20.43708 | 13949 ft | 390 kts | 129° |
| 2026-05-04 20:09 | 52.44656 | 20.47305 | 13369 ft | 388 kts | 129° |
| 2026-05-04 20:09 | 52.43081 | 20.50872 | 12798 ft | 384 kts | 129° |
| 2026-05-04 20:09 | 52.42045 | 20.53212 | 12428 ft | 382 kts | 129° |
| 2026-05-04 20:09 | 52.40493 | 20.56718 | 11885 ft | 379 kts | 129° |
| 2026-05-04 20:10 | 52.38954 | 20.60192 | 11339 ft | 376 kts | 129° |
| 2026-05-04 20:10 | 52.37425 | 20.63636 | 10818 ft | 373 kts | 129° |
| 2026-05-04 20:10 | 52.35460 | 20.68066 | 10680 ft | 353 kts | 129° |
| 2026-05-04 20:10 | 52.34499 | 20.70230 | 10608 ft | 344 kts | 129° |
| 2026-05-04 20:11 | 52.33118 | 20.73336 | 10528 ft | 331 kts | 129° |
| 2026-05-04 20:11 | 52.31773 | 20.76353 | 10442 ft | 319 kts | 129° |
| 2026-05-04 20:11 | 52.30490 | 20.79229 | 10360 ft | 307 kts | 129° |
| 2026-05-04 20:11 | 52.29247 | 20.82008 | 10208 ft | 300 kts | 129° |
| 2026-05-04 20:12 | 52.28036 | 20.84710 | 9914 ft | 298 kts | 129° |
| 2026-05-04 20:12 | 52.26811 | 20.87440 | 9574 ft | 298 kts | 129° |
| 2026-05-04 20:12 | 52.25590 | 20.90159 | 9257 ft | 296 kts | 129° |
| 2026-05-04 20:12 | 52.24374 | 20.92867 | 8941 ft | 295 kts | 129° |
| 2026-05-04 20:13 | 52.23178 | 20.95529 | 8634 ft | 293 kts | 129° |
| 2026-05-04 20:13 | 52.21974 | 20.98206 | 8321 ft | 292 kts | 129° |
| 2026-05-04 20:13 | 52.20752 | 21.00922 | 8010 ft | 290 kts | 129° |
| 2026-05-04 20:13 | 52.19583 | 21.03517 | 7705 ft | 289 kts | 129° |
| 2026-05-04 20:14 | 52.18395 | 21.06151 | 7409 ft | 288 kts | 129° |
| 2026-05-04 20:14 | 52.17220 | 21.08752 | 7267 ft | 280 kts | 129° |
| 2026-05-04 20:14 | 52.16097 | 21.11241 | 7293 ft | 266 kts | 129° |
| 2026-05-04 20:14 | 52.14901 | 21.13417 | 7230 ft | 252 kts | 149° |
| 2026-05-04 20:15 | 52.13402 | 21.14794 | 6920 ft | 244 kts | 156° |
| 2026-05-04 20:15 | 52.11912 | 21.16066 | 6635 ft | 241 kts | 156° |
| 2026-05-04 20:15 | 52.10433 | 21.17344 | 6355 ft | 240 kts | 156° |
| 2026-05-04 20:15 | 52.08966 | 21.18618 | 5979 ft | 239 kts | 156° |
| 2026-05-04 20:16 | 52.07497 | 21.19897 | 5560 ft | 240 kts | 156° |
| 2026-05-04 20:16 | 52.06036 | 21.21171 | 5283 ft | 233 kts | 156° |
| 2026-05-04 20:16 | 52.04656 | 21.22329 | 5191 ft | 213 kts | 165° |
| 2026-05-04 20:16 | 52.03254 | 21.22479 | 4813 ft | 199 kts | 199° |
| 2026-05-04 20:17 | 52.02068 | 21.21426 | 4381 ft | 195 kts | 226° |
| 2026-05-04 20:17 | 52.01320 | 21.19607 | 3985 ft | 196 kts | 251° |
| 2026-05-04 20:17 | 52.01131 | 21.17460 | 3745 ft | 191 kts | 270° |
| 2026-05-04 20:17 | 52.01184 | 21.15322 | 3500 ft | 188 kts | 271° |
| 2026-05-04 20:18 | 52.01233 | 21.13247 | 3378 ft | 180 kts | 271° |
| 2026-05-04 20:18 | 52.01415 | 21.11297 | 3226 ft | 174 kts | 296° |
| 2026-05-04 20:18 | 52.02276 | 21.09956 | 3156 ft | 175 kts | 319° |
| 2026-05-04 20:18 | 52.03266 | 21.08777 | 3046 ft | 177 kts | 321° |
| 2026-05-04 20:19 | 52.04282 | 21.07625 | 2824 ft | 178 kts | 323° |
| 2026-05-04 20:19 | 52.05326 | 21.06598 | 2596 ft | 172 kts | 326° |
| 2026-05-04 20:19 | 52.06334 | 21.05697 | 2416 ft | 157 kts | 327° |
| 2026-05-04 20:19 | 52.07285 | 21.04860 | 2181 ft | 154 kts | 327° |
| 2026-05-04 20:20 | 52.08216 | 21.04043 | 1989 ft | 150 kts | 327° |
| 2026-05-04 20:20 | 52.09138 | 21.03232 | 1816 ft | 151 kts | 327° |
| 2026-05-04 20:20 | 52.10071 | 21.02410 | 1574 ft | 153 kts | 328° |
| 2026-05-04 20:20 | 52.11003 | 21.01595 | 1373 ft | 151 kts | 328° |
| 2026-05-04 20:21 | 52.11930 | 21.00779 | 1183 ft | 151 kts | 329° |
| 2026-05-04 20:21 | 52.12862 | 20.99960 | 990 ft | 153 kts | 330° |
| 2026-05-04 20:21 | 52.14730 | 20.98321 | 580 ft | 153 kts | 330° |
| 2026-05-04 20:22 | 52.15652 | 20.97518 | 362 ft | 147 kts | 330° |
| 2026-05-04 20:22 | 52.16489 | 20.96783 | 337 ft | 109 kts | 332° |
| 2026-05-04 20:22 | 52.16975 | 20.96358 | 334 ft | 54 kts | 331° |
| 2026-05-04 20:22 | 52.17242 | 20.96241 | 333 ft | 27 kts | 358° |
| 2026-05-04 20:23 | 52.17346 | 20.96246 | 335 ft | 10 kts | 2° |
| 2026-05-04 20:23 | 52.17395 | 20.96285 | 333 ft | 8 kts | 53° |
| 2026-05-04 20:23 | 52.17423 | 20.96366 | 335 ft | 8 kts | 61° |
| 2026-05-04 20:23 | 52.17450 | 20.96448 | 337 ft | 8 kts | 62° |
| 2026-05-04 20:24 | 52.17467 | 20.96534 | 333 ft | 8 kts | 94° |
| 2026-05-04 20:24 | 52.17433 | 20.96597 | 336 ft | 8 kts | 149° |
| 2026-05-04 20:24 | 52.17374 | 20.96650 | 338 ft | 11 kts | 151° |
| 2026-05-04 20:24 | 52.17307 | 20.96709 | 337 ft | 11 kts | 152° |
| 2026-05-04 20:25 | 52.17245 | 20.96763 | 336 ft | 9 kts | 152° |
| 2026-05-04 20:25 | 52.17189 | 20.96813 | 335 ft | 9 kts | 151° |
| 2026-05-04 20:25 | 52.17134 | 20.96861 | 338 ft | 9 kts | 152° |
| 2026-05-04 20:25 | 52.17079 | 20.96908 | 335 ft | 9 kts | 152° |
| 2026-05-04 20:26 | 52.17027 | 20.96954 | 338 ft | 8 kts | 151° |
| 2026-05-04 20:26 | 52.16977 | 20.96998 | 337 ft | 8 kts | 152° |
| 2026-05-04 20:26 | 52.16928 | 20.97041 | 336 ft | 8 kts | 152° |
| 2026-05-04 20:26 | 52.16896 | 20.97089 | 337 ft | 6 kts | 98° |
| 2026-05-04 20:27 | 52.16904 | 20.97157 | 336 ft | 6 kts | 76° |
| 2026-05-04 20:27 | 52.16912 | 20.97210 | 336 ft | 2 kts | 76° |
| 2026-05-04 20:27 | 52.16914 | 20.97224 | 337 ft | 1 kts | 76° |
| 2026-05-04 20:27 | 52.16914 | 20.97226 | 337 ft | 0 kts | 76° |